createdAt,value
2022-12-17T00:00:40.487Z,71.62
2022-12-17T00:03:29.272Z,71.63
2022-12-17T00:06:14.604Z,72.00
2022-12-17T00:09:00.030Z,72.26
2022-12-17T00:11:45.379Z,72.00
2022-12-17T00:14:30.787Z,72.27
2022-12-17T00:17:16.032Z,72.65
2022-12-17T00:20:01.345Z,72.33
2022-12-17T00:22:46.794Z,72.48
2022-12-17T00:25:32.092Z,72.15
2022-12-17T00:28:17.390Z,72.18
2022-12-17T00:31:02.711Z,71.95
2022-12-17T00:33:47.903Z,72.28
2022-12-17T00:36:33.289Z,72.32
2022-12-17T00:39:18.818Z,72.08
2022-12-17T00:42:04.298Z,71.74
2022-12-17T00:44:49.557Z,72.03
2022-12-17T00:47:35.161Z,72.04
2022-12-17T00:50:20.662Z,72.14
2022-12-17T00:53:06.552Z,72.32
2022-12-17T00:55:51.996Z,72.09
2022-12-17T00:58:37.026Z,71.93
2022-12-17T01:01:22.685Z,71.59
2022-12-17T01:04:07.958Z,71.65
2022-12-17T01:06:53.963Z,71.57
2022-12-17T01:09:39.492Z,71.57
2022-12-17T01:12:24.941Z,71.56
2022-12-17T01:15:10.276Z,71.30
2022-12-17T01:17:56.311Z,71.22
2022-12-17T01:20:42.157Z,71.58
2022-12-17T01:23:27.740Z,71.64
2022-12-17T01:26:15.741Z,72.01
2022-12-17T01:29:01.294Z,72.00
2022-12-17T01:31:47.422Z,72.38
2022-12-17T01:34:32.631Z,72.40
2022-12-17T01:37:17.997Z,72.42
2022-12-17T01:40:03.463Z,72.79
2022-12-17T01:43:01.560Z,72.47
2022-12-17T01:46:02.346Z,72.54
2022-12-17T01:48:59.543Z,72.50
2022-12-17T01:51:46.555Z,72.82
2022-12-17T01:54:32.576Z,72.70
2022-12-17T01:57:19.167Z,73.26
2022-12-17T02:00:25.608Z,72.94
2022-12-17T02:03:11.119Z,73.20
2022-12-17T02:06:41.957Z,72.80
2022-12-17T02:09:49.874Z,72.83
2022-12-17T02:12:54.956Z,72.73
2022-12-17T02:15:58.641Z,72.72
2022-12-17T02:18:54.977Z,72.66
2022-12-17T02:21:41.641Z,72.45
2022-12-17T02:24:49.568Z,72.36
2022-12-17T02:27:36.014Z,72.52
2022-12-17T02:30:25.789Z,72.52
2022-12-17T02:33:12.069Z,71.95
2022-12-17T02:36:07.165Z,71.32
2022-12-17T02:38:52.825Z,71.25
2022-12-17T02:41:47.713Z,70.84
2022-12-17T02:44:36.349Z,70.80
2022-12-17T02:47:25.480Z,70.74
2022-12-17T02:50:10.900Z,70.89
2022-12-17T02:53:04.422Z,70.78
2022-12-17T02:55:50.161Z,71.04
2022-12-17T02:58:35.703Z,70.50
2022-12-17T03:01:21.320Z,70.47
2022-12-17T03:04:06.553Z,70.40
2022-12-17T03:06:52.097Z,70.54
2022-12-17T03:09:37.565Z,70.28
2022-12-17T03:12:23.198Z,70.15
2022-12-17T03:15:08.584Z,69.94
2022-12-17T03:17:53.975Z,69.94
2022-12-17T03:20:39.441Z,70.19
2022-12-17T03:23:27.809Z,70.26
2022-12-17T03:26:17.286Z,70.08
2022-12-17T03:29:02.922Z,70.07
2022-12-17T03:31:48.297Z,69.70
2022-12-17T03:34:33.825Z,70.02
2022-12-17T03:37:19.416Z,69.77
2022-12-17T03:40:04.848Z,70.11
2022-12-17T03:42:50.328Z,69.12
2022-12-17T03:45:35.852Z,69.76
2022-12-17T03:48:31.666Z,70.17
2022-12-17T03:51:17.648Z,69.65
2022-12-17T03:54:03.670Z,70.25
2022-12-17T03:56:49.844Z,69.89
2022-12-17T03:59:35.138Z,69.57
2022-12-17T04:02:20.844Z,69.89
2022-12-17T04:05:06.526Z,70.19
2022-12-17T04:08:11.735Z,69.81
2022-12-17T04:10:57.079Z,69.66
2022-12-17T04:13:42.951Z,69.86
2022-12-17T04:16:31.363Z,69.41
2022-12-17T04:19:17.182Z,69.57
2022-12-17T04:22:02.209Z,69.30
2022-12-17T04:24:47.817Z,69.37
2022-12-17T04:27:33.096Z,69.65
2022-12-17T04:30:18.490Z,69.48
2022-12-17T04:33:04.090Z,69.21
2022-12-17T04:35:49.525Z,69.07
2022-12-17T04:38:35.209Z,68.94
2022-12-17T04:41:20.488Z,68.76
2022-12-17T04:44:05.877Z,69.14
2022-12-17T04:46:51.257Z,69.30
2022-12-17T04:49:36.666Z,69.15
2022-12-17T04:52:22.626Z,69.17
2022-12-17T04:55:08.133Z,69.35
2022-12-17T04:58:13.386Z,69.41
2022-12-17T05:00:58.775Z,69.82
2022-12-17T05:03:44.170Z,69.63
2022-12-17T05:06:29.667Z,69.85
2022-12-17T05:09:15.300Z,69.64
2022-12-17T05:12:00.835Z,69.58
2022-12-17T05:14:46.469Z,69.76
2022-12-17T05:17:31.909Z,69.49
2022-12-17T05:20:17.305Z,69.29
2022-12-17T05:23:02.737Z,69.36
2022-12-17T05:25:48.310Z,69.27
2022-12-17T05:28:34.016Z,69.28
2022-12-17T05:31:19.784Z,69.51
2022-12-17T05:34:05.219Z,69.03
2022-12-17T05:36:50.773Z,69.29
2022-12-17T05:39:36.121Z,68.65
2022-12-17T05:42:21.590Z,69.12
2022-12-17T05:45:07.089Z,69.47
2022-12-17T05:47:52.582Z,69.47
2022-12-17T05:50:38.111Z,69.48
2022-12-17T05:53:25.006Z,69.86
2022-12-17T05:56:12.105Z,69.83
2022-12-17T05:58:58.304Z,69.60
2022-12-17T06:01:43.954Z,69.61
2022-12-17T06:04:30.041Z,69.77
2022-12-17T06:07:15.374Z,69.68
2022-12-17T06:10:00.809Z,69.70
2022-12-17T06:12:46.280Z,70.46
2022-12-17T06:15:31.689Z,70.71
2022-12-17T06:18:17.589Z,70.49
2022-12-17T06:21:03.629Z,70.13
2022-12-17T06:23:48.991Z,70.32
2022-12-17T06:26:34.682Z,69.60
2022-12-17T06:29:20.105Z,70.37
2022-12-17T06:32:05.361Z,70.38
2022-12-17T06:34:50.478Z,69.97
2022-12-17T06:37:35.888Z,69.89
2022-12-17T06:40:21.485Z,70.07
2022-12-17T06:43:16.258Z,69.63
2022-12-17T06:46:01.514Z,70.66
2022-12-17T06:48:46.895Z,70.63
2022-12-17T06:51:32.372Z,70.67
2022-12-17T06:54:17.697Z,70.49
2022-12-17T06:57:03.170Z,70.07
2022-12-17T06:59:48.576Z,70.06
2022-12-17T07:02:34.093Z,70.01
2022-12-17T07:05:19.486Z,69.74
2022-12-17T07:08:04.962Z,69.58
2022-12-17T07:10:50.505Z,69.73
2022-12-17T07:13:36.383Z,69.65
2022-12-17T07:16:22.045Z,69.75
2022-12-17T07:19:07.310Z,70.09
2022-12-17T07:21:52.634Z,70.19
2022-12-17T07:24:38.063Z,70.53
2022-12-17T07:27:23.393Z,69.85
2022-12-17T07:30:08.907Z,69.12
2022-12-17T07:32:54.328Z,69.14
2022-12-17T07:35:39.873Z,68.99
2022-12-17T07:38:25.795Z,69.29
2022-12-17T07:41:11.157Z,68.53
2022-12-17T07:43:56.701Z,68.20
2022-12-17T07:46:42.032Z,68.78
2022-12-17T07:49:27.527Z,69.08
2022-12-17T07:52:12.929Z,68.77
2022-12-17T07:54:58.435Z,68.13
2022-12-17T07:57:44.537Z,68.84
2022-12-17T08:00:31.149Z,68.63
2022-12-17T08:03:18.626Z,69.36
2022-12-17T08:06:04.482Z,68.76
2022-12-17T08:08:50.036Z,69.16
2022-12-17T08:11:35.992Z,68.47
2022-12-17T08:14:21.169Z,67.78
2022-12-17T08:17:06.652Z,66.93
2022-12-17T08:19:51.990Z,66.65
2022-12-17T08:22:37.421Z,66.35
2022-12-17T08:25:23.479Z,65.76
2022-12-17T08:28:49.085Z,66.75
2022-12-17T08:31:24.126Z,66.12
2022-12-17T08:34:09.426Z,65.51
2022-12-17T08:36:54.919Z,66.08
2022-12-17T08:39:40.088Z,65.16
2022-12-17T08:42:25.493Z,65.71
2022-12-17T08:45:10.958Z,64.05
2022-12-17T08:48:00.566Z,63.79
2022-12-17T08:50:49.184Z,60.36
2022-12-17T08:53:35.129Z,60.16
2022-12-17T08:56:20.597Z,59.07
2022-12-17T08:59:05.840Z,58.68
2022-12-17T09:01:51.242Z,57.06
2022-12-17T09:04:36.794Z,55.76
2022-12-17T09:07:22.229Z,52.22
2022-12-17T09:10:07.592Z,52.08
2022-12-17T09:12:52.888Z,51.45
2022-12-17T09:15:55.174Z,51.70
2022-12-17T09:18:40.828Z,51.55
2022-12-17T09:21:27.157Z,50.67
2022-12-17T09:24:12.742Z,49.68
2022-12-17T09:26:58.038Z,49.44
2022-12-17T09:29:43.085Z,48.27
2022-12-17T09:32:36.078Z,48.78
2022-12-17T09:35:21.620Z,48.34
2022-12-17T09:38:14.767Z,48.48
2022-12-17T09:41:05.871Z,50.62
2022-12-17T09:44:23.882Z,50.46
2022-12-17T09:47:48.139Z,49.89
2022-12-17T09:50:34.849Z,48.11
2022-12-17T09:53:38.419Z,48.26
2022-12-17T09:56:25.228Z,49.58
2022-12-17T09:59:10.375Z,50.63
2022-12-17T10:01:58.762Z,52.56
2022-12-17T10:04:56.667Z,54.74
2022-12-17T10:07:45.453Z,53.79
2022-12-17T10:10:41.769Z,51.59
2022-12-17T10:13:37.637Z,48.11
2022-12-17T10:16:47.935Z,44.57
2022-12-17T10:19:42.501Z,41.79
2022-12-17T10:22:30.972Z,42.93
2022-12-17T10:25:33.387Z,44.18
2022-12-17T10:28:30.149Z,47.15
2022-12-17T10:31:16.572Z,51.43
2022-12-17T10:34:02.477Z,52.33
2022-12-17T10:36:48.214Z,52.41
2022-12-17T10:39:44.376Z,47.94
2022-12-17T10:42:48.595Z,45.56
2022-12-17T10:45:46.463Z,44.04
2022-12-17T10:48:49.891Z,42.09
2022-12-17T10:51:55.535Z,42.45
2022-12-17T10:54:50.390Z,44.14
2022-12-17T10:57:56.384Z,47.87
2022-12-17T11:00:51.756Z,48.21
2022-12-17T11:03:50.897Z,46.36
2022-12-17T11:06:47.225Z,45.46
2022-12-17T11:10:03.664Z,43.00
2022-12-17T11:13:03.460Z,43.13
2022-12-17T11:16:23.683Z,40.68
2022-12-17T11:19:17.273Z,37.81
2022-12-17T11:22:06.288Z,35.47
2022-12-17T11:25:02.731Z,35.58
2022-12-17T11:28:00.102Z,34.48
2022-12-17T11:30:47.165Z,36.74
2022-12-17T11:33:43.716Z,35.73
2022-12-17T11:36:44.925Z,39.10
2022-12-17T11:40:02.546Z,35.70
2022-12-17T11:43:02.605Z,34.09
2022-12-17T11:45:56.133Z,33.97
2022-12-17T11:49:03.003Z,33.60
2022-12-17T11:52:11.364Z,32.51
2022-12-17T11:55:26.707Z,31.31
2022-12-17T11:58:33.678Z,31.59
2022-12-17T12:01:38.966Z,37.09
2022-12-17T12:04:46.810Z,38.31
2022-12-17T12:07:52.189Z,35.84
2022-12-17T12:10:49.670Z,35.15
2022-12-17T12:14:06.219Z,38.61
2022-12-17T12:17:10.249Z,42.12
2022-12-17T12:20:20.870Z,44.48
2022-12-17T12:23:44.007Z,39.42
2022-12-17T12:26:46.640Z,34.37
2022-12-17T12:29:59.232Z,32.49
2022-12-17T12:33:22.971Z,37.66
2022-12-17T12:36:11.490Z,39.11
2022-12-17T12:39:02.383Z,34.92
2022-12-17T12:42:13.726Z,32.39
2022-12-17T12:45:13.719Z,33.62
2022-12-17T12:48:19.630Z,38.27
2022-12-17T12:51:34.102Z,36.76
2022-12-17T12:54:39.908Z,38.00
2022-12-17T12:57:54.850Z,38.22
2022-12-17T13:00:43.194Z,35.93
2022-12-17T13:03:46.850Z,36.64
2022-12-17T13:06:43.668Z,38.42
2022-12-17T13:09:20.628Z,39.03
2022-12-17T13:12:04.186Z,38.85
2022-12-17T13:14:59.287Z,35.94
2022-12-17T13:17:59.097Z,34.96
2022-12-17T13:20:33.481Z,33.92
2022-12-17T13:23:30.046Z,37.63
2022-12-17T13:26:22.190Z,38.74
2022-12-17T13:29:29.694Z,36.76
2022-12-17T13:32:14.308Z,34.22
2022-12-17T13:35:17.886Z,33.89
2022-12-17T13:38:12.416Z,34.77
2022-12-17T13:41:08.109Z,35.37
2022-12-17T13:43:50.586Z,36.45
2022-12-17T13:46:23.713Z,38.66
2022-12-17T13:49:03.344Z,44.43
2022-12-17T13:51:33.442Z,47.26
2022-12-17T13:54:03.844Z,50.14
2022-12-17T13:56:37.430Z,52.72
2022-12-17T13:59:09.081Z,50.33
2022-12-17T14:01:49.293Z,51.57
2022-12-17T14:04:28.953Z,47.89
2022-12-17T14:07:00.260Z,47.28
2022-12-17T14:09:34.985Z,46.87
2022-12-17T14:12:23.884Z,43.94
2022-12-17T14:15:08.313Z,42.09
2022-12-17T14:17:44.585Z,42.16
2022-12-17T14:20:19.362Z,41.15
2022-12-17T14:22:53.876Z,41.35
2022-12-17T14:25:43.390Z,43.87
2022-12-17T14:28:31.095Z,46.77
2022-12-17T14:31:26.712Z,47.84
2022-12-17T14:34:11.180Z,49.96
2022-12-17T14:36:43.912Z,51.03
2022-12-17T14:39:25.888Z,52.11
2022-12-17T14:42:32.286Z,54.20
2022-12-17T14:45:07.669Z,56.39
2022-12-17T14:47:37.463Z,57.45
2022-12-17T14:50:13.183Z,58.12
2022-12-17T14:52:46.681Z,57.89
2022-12-17T14:55:58.465Z,58.44
2022-12-17T14:58:27.620Z,59.10
2022-12-17T15:01:12.996Z,60.29
2022-12-17T15:03:47.939Z,60.87
2022-12-17T15:06:19.839Z,61.29
2022-12-17T15:08:49.028Z,61.21
2022-12-17T15:11:20.304Z,61.58
2022-12-17T15:13:52.831Z,61.99
2022-12-17T15:16:22.903Z,62.67
2022-12-17T15:18:49.716Z,62.43
2022-12-17T15:21:18.457Z,62.22
2022-12-17T15:23:47.055Z,62.58
2022-12-17T15:26:15.146Z,63.12
2022-12-17T15:28:42.867Z,63.06
2022-12-17T15:31:12.542Z,63.29
2022-12-17T15:33:40.298Z,63.08
2022-12-17T15:36:08.009Z,63.10
2022-12-17T15:38:35.032Z,63.51
2022-12-17T15:41:30.686Z,64.25
2022-12-17T15:43:57.430Z,64.44
2022-12-17T15:46:24.299Z,65.06
2022-12-17T15:48:51.315Z,65.86
2022-12-17T15:51:20.911Z,65.81
2022-12-17T15:53:48.266Z,65.80
2022-12-17T15:56:27.263Z,66.59
2022-12-17T15:58:57.341Z,66.68
2022-12-17T16:01:24.837Z,67.42
2022-12-17T16:03:55.110Z,67.20
2022-12-17T16:06:22.077Z,67.21
2022-12-17T16:08:48.892Z,67.26
2022-12-17T16:11:16.113Z,67.20
2022-12-17T16:13:43.051Z,66.80
2022-12-17T16:16:10.218Z,66.48
2022-12-17T16:18:38.518Z,66.06
2022-12-17T16:21:08.301Z,66.32
2022-12-17T16:23:36.142Z,65.97
2022-12-17T16:26:05.376Z,65.88
2022-12-17T16:28:32.740Z,65.31
2022-12-17T16:31:09.363Z,66.07
2022-12-17T16:33:39.794Z,66.25
2022-12-17T16:36:09.386Z,65.53
2022-12-17T16:38:36.729Z,64.69
2022-12-17T16:41:03.982Z,65.03
2022-12-17T16:43:34.202Z,65.86
2022-12-17T16:46:01.475Z,66.00
2022-12-17T16:48:28.293Z,65.97
2022-12-17T16:50:55.083Z,66.68
2022-12-17T16:53:22.313Z,67.51
2022-12-17T16:55:49.715Z,67.53
2022-12-17T16:58:17.904Z,66.99
2022-12-17T17:00:46.159Z,67.27
2022-12-17T17:03:13.149Z,67.22
2022-12-17T17:05:40.551Z,66.78
2022-12-17T17:08:07.564Z,66.73
2022-12-17T17:10:36.899Z,66.56
2022-12-17T17:13:04.157Z,66.88
2022-12-17T17:15:31.096Z,67.23
2022-12-17T17:18:01.784Z,68.29
2022-12-17T17:20:32.242Z,68.21
2022-12-17T17:22:59.618Z,68.05
2022-12-17T17:25:43.945Z,68.04
2022-12-17T17:28:13.541Z,68.38
2022-12-17T17:30:40.286Z,68.31
2022-12-17T17:33:07.056Z,68.46
2022-12-17T17:35:33.807Z,68.19
2022-12-17T17:38:00.894Z,68.05
2022-12-17T17:40:27.649Z,68.29
2022-12-17T17:42:54.482Z,67.76
2022-12-17T17:45:21.318Z,67.99
2022-12-17T17:47:48.064Z,68.10
2022-12-17T17:50:15.930Z,68.12
2022-12-17T17:52:42.689Z,67.34
2022-12-17T17:55:09.582Z,67.54
2022-12-17T17:57:36.320Z,67.63
2022-12-17T18:00:04.029Z,67.59
2022-12-17T18:02:31.081Z,66.38
2022-12-17T18:05:00.921Z,64.04
2022-12-17T18:07:28.257Z,63.63
2022-12-17T18:09:56.215Z,63.42
2022-12-17T18:12:41.849Z,64.47
2022-12-17T18:15:14.861Z,65.77
2022-12-17T18:17:49.291Z,66.92
2022-12-17T18:20:16.569Z,67.94
2022-12-17T18:22:45.854Z,69.12
2022-12-17T18:25:13.112Z,68.78
2022-12-17T18:27:39.958Z,68.55
2022-12-17T18:30:07.481Z,67.31
2022-12-17T18:32:34.390Z,67.22
2022-12-17T18:35:01.312Z,67.75
2022-12-17T18:37:28.208Z,68.04
2022-12-17T18:39:55.064Z,68.33
2022-12-17T18:42:40.106Z,68.32
2022-12-17T18:45:07.698Z,68.06
2022-12-17T18:47:34.438Z,67.44
2022-12-17T18:50:01.275Z,65.86
2022-12-17T18:52:28.081Z,65.32
2022-12-17T18:54:54.929Z,65.55
2022-12-17T18:57:21.835Z,63.26
2022-12-17T18:59:49.289Z,63.58
2022-12-17T19:02:16.329Z,62.72
2022-12-17T19:04:43.254Z,63.24
2022-12-17T19:07:10.657Z,64.46
2022-12-17T19:09:39.411Z,65.86
2022-12-17T19:12:08.914Z,66.48
2022-12-17T19:14:36.837Z,66.59
2022-12-17T19:17:05.758Z,66.83
2022-12-17T19:19:33.582Z,66.23
2022-12-17T19:22:00.692Z,66.50
2022-12-17T19:24:27.859Z,67.01
2022-12-17T19:26:55.040Z,67.30
2022-12-17T19:29:22.120Z,67.74
2022-12-17T19:31:49.870Z,67.65
2022-12-17T19:34:18.861Z,68.40
2022-12-17T19:36:47.201Z,68.22
2022-12-17T19:39:17.929Z,69.07
2022-12-17T19:41:46.215Z,69.65
2022-12-17T19:44:16.168Z,69.44
2022-12-17T19:46:44.766Z,69.89
2022-12-17T19:49:14.790Z,70.39
2022-12-17T19:51:44.396Z,70.60
2022-12-17T19:54:15.532Z,70.85
2022-12-17T19:56:44.757Z,71.04
2022-12-17T19:59:12.180Z,71.39
2022-12-17T20:01:48.453Z,71.40
2022-12-17T20:04:16.547Z,71.30
2022-12-17T20:06:44.548Z,71.34
2022-12-17T20:09:12.586Z,71.56
2022-12-17T20:11:39.470Z,71.99
2022-12-17T20:14:16.175Z,72.34
2022-12-17T20:16:47.061Z,71.96
2022-12-17T20:19:21.385Z,72.19
2022-12-17T20:21:48.777Z,72.31
2022-12-17T20:24:17.322Z,72.28
2022-12-17T20:26:46.149Z,72.41
2022-12-17T20:29:13.091Z,72.06
2022-12-17T20:31:42.361Z,72.08
2022-12-17T20:34:15.418Z,72.36
2022-12-17T20:36:43.914Z,71.97
2022-12-17T20:39:12.627Z,72.21
2022-12-17T20:41:40.244Z,72.46
2022-12-17T20:44:11.390Z,72.38
2022-12-17T20:46:38.191Z,72.14
2022-12-17T20:49:05.918Z,72.22
2022-12-17T20:51:33.220Z,72.19
2022-12-17T20:54:01.778Z,72.58
2022-12-17T20:56:33.895Z,72.26
2022-12-17T20:59:06.639Z,72.24
2022-12-17T21:01:36.114Z,72.27
2022-12-17T21:04:04.040Z,72.13
2022-12-17T21:06:40.366Z,72.30
2022-12-17T21:09:07.816Z,72.18
2022-12-17T21:11:36.348Z,72.41
2022-12-17T21:14:12.576Z,72.68
2022-12-17T21:16:40.840Z,72.83
2022-12-17T21:19:10.003Z,72.59
2022-12-17T21:21:38.558Z,72.74
2022-12-17T21:24:06.661Z,72.82
2022-12-17T21:26:37.189Z,72.74
2022-12-17T21:29:06.466Z,73.39
2022-12-17T21:31:40.683Z,74.06
2022-12-17T21:34:12.390Z,73.74
2022-12-17T21:36:39.626Z,74.20
2022-12-17T21:39:09.349Z,74.78
2022-12-17T21:41:42.937Z,74.27
2022-12-17T21:44:15.161Z,74.20
2022-12-17T21:46:43.027Z,74.60
2022-12-17T21:49:10.450Z,74.37
2022-12-17T21:51:37.499Z,75.05
2022-12-17T21:54:08.137Z,74.92
2022-12-17T21:56:36.370Z,75.79
2022-12-17T21:59:03.661Z,75.15
2022-12-17T22:01:33.666Z,75.15
2022-12-17T22:04:03.313Z,74.82
2022-12-17T22:06:34.227Z,74.23
2022-12-17T22:09:22.742Z,75.00
2022-12-17T22:12:14.217Z,74.83
2022-12-17T22:14:41.014Z,74.39
2022-12-17T22:17:07.819Z,73.93
2022-12-17T22:19:34.578Z,74.50
2022-12-17T22:22:01.390Z,74.23
2022-12-17T22:24:28.184Z,74.80
2022-12-17T22:27:01.654Z,75.07
2022-12-17T22:29:47.349Z,75.01
2022-12-17T22:32:33.197Z,74.72
2022-12-17T22:36:28.108Z,74.83
2022-12-17T22:41:56.332Z,74.91
2022-12-17T22:44:34.120Z,75.53
2022-12-17T22:44:45.479Z,74.74
2022-12-17T22:46:19.640Z,74.80
2022-12-17T22:48:46.928Z,74.42
2022-12-17T22:51:20.697Z,74.87
2022-12-17T22:53:53.555Z,74.83
2022-12-17T22:56:34.630Z,74.81
2022-12-17T22:59:16.742Z,74.46
2022-12-17T23:01:43.811Z,74.50
2022-12-17T23:04:13.714Z,74.80
2022-12-17T23:06:41.873Z,75.02
2022-12-17T23:09:08.648Z,75.30
2022-12-17T23:11:35.498Z,75.98
2022-12-17T23:14:02.280Z,75.30
2022-12-17T23:16:29.207Z,75.34
2022-12-17T23:18:56.118Z,74.96
2022-12-17T23:21:25.624Z,75.05
2022-12-17T23:23:55.306Z,74.57
2022-12-17T23:26:29.310Z,75.09
2022-12-17T23:28:59.094Z,74.92
2022-12-17T23:31:30.931Z,74.66
2022-12-17T23:33:57.826Z,74.58
2022-12-17T23:36:26.254Z,74.99
2022-12-17T23:38:55.580Z,75.20
2022-12-17T23:41:26.911Z,74.75
2022-12-17T23:43:54.663Z,75.45
2022-12-17T23:46:23.689Z,74.33
2022-12-17T23:48:51.372Z,74.55
2022-12-17T23:51:21.681Z,75.01
2022-12-17T23:53:49.089Z,74.68
2022-12-17T23:56:18.609Z,74.98
2022-12-17T23:58:46.721Z,75.19
